sensor_id;sensor_type;location;lat;lon;timestamp;P1;durP1;ratioP1;P2;durP2;ratioP2
12445;SDS011;6287;50.984;7.022;2023-11-18T00:02:15;31.70;;;14.07;;
12445;SDS011;6287;50.984;7.022;2023-11-18T00:04:41;29.13;;;13.60;;
12445;SDS011;6287;50.984;7.022;2023-11-18T00:07:07;29.40;;;13.07;;
12445;SDS011;6287;50.984;7.022;2023-11-18T00:09:32;29.30;;;13.30;;
12445;SDS011;6287;50.984;7.022;2023-11-18T00:11:58;29.70;;;14.17;;
12445;SDS011;6287;50.984;7.022;2023-11-18T00:14:24;29.83;;;13.97;;
12445;SDS011;6287;50.984;7.022;2023-11-18T00:16:49;30.10;;;13.33;;
12445;SDS011;6287;50.984;7.022;2023-11-18T00:19:15;31.07;;;13.17;;
12445;SDS011;6287;50.984;7.022;2023-11-18T00:21:40;31.27;;;13.97;;
12445;SDS011;6287;50.984;7.022;2023-11-18T00:24:07;29.03;;;13.63;;
12445;SDS011;6287;50.984;7.022;2023-11-18T00:26:35;33.57;;;13.37;;
12445;SDS011;6287;50.984;7.022;2023-11-18T00:29:01;29.27;;;12.57;;
12445;SDS011;6287;50.984;7.022;2023-11-18T00:31:29;28.17;;;13.47;;
12445;SDS011;6287;50.984;7.022;2023-11-18T00:33:54;31.93;;;12.47;;
12445;SDS011;6287;50.984;7.022;2023-11-18T00:36:20;27.80;;;12.10;;
12445;SDS011;6287;50.984;7.022;2023-11-18T00:38:45;30.80;;;12.17;;
12445;SDS011;6287;50.984;7.022;2023-11-18T00:41:12;27.43;;;12.43;;
12445;SDS011;6287;50.984;7.022;2023-11-18T00:43:42;33.17;;;12.77;;
12445;SDS011;6287;50.984;7.022;2023-11-18T00:46:07;30.47;;;12.17;;
12445;SDS011;6287;50.984;7.022;2023-11-18T00:48:33;30.73;;;13.63;;
12445;SDS011;6287;50.984;7.022;2023-11-18T00:50:58;34.77;;;13.77;;
12445;SDS011;6287;50.984;7.022;2023-11-18T00:53:24;30.17;;;11.57;;
12445;SDS011;6287;50.984;7.022;2023-11-18T00:55:52;28.33;;;12.37;;
12445;SDS011;6287;50.984;7.022;2023-11-18T00:58:18;30.97;;;12.90;;
12445;SDS011;6287;50.984;7.022;2023-11-18T01:00:48;27.57;;;12.33;;
12445;SDS011;6287;50.984;7.022;2023-11-18T01:03:17;31.40;;;13.90;;
12445;SDS011;6287;50.984;7.022;2023-11-18T01:05:47;27.73;;;11.93;;
12445;SDS011;6287;50.984;7.022;2023-11-18T01:08:15;31.63;;;12.50;;
12445;SDS011;6287;50.984;7.022;2023-11-18T01:10:44;25.50;;;11.27;;
12445;SDS011;6287;50.984;7.022;2023-11-18T01:13:17;26.60;;;11.90;;
12445;SDS011;6287;50.984;7.022;2023-11-18T01:15:42;26.40;;;11.30;;
12445;SDS011;6287;50.984;7.022;2023-11-18T01:18:08;27.77;;;11.00;;
12445;SDS011;6287;50.984;7.022;2023-11-18T01:20:36;29.13;;;12.50;;
12445;SDS011;6287;50.984;7.022;2023-11-18T01:23:04;25.43;;;12.23;;
12445;SDS011;6287;50.984;7.022;2023-11-18T01:25:29;26.13;;;12.00;;
12445;SDS011;6287;50.984;7.022;2023-11-18T01:27:55;30.17;;;13.53;;
12445;SDS011;6287;50.984;7.022;2023-11-18T01:30:21;27.73;;;12.97;;
12445;SDS011;6287;50.984;7.022;2023-11-18T01:32:48;28.43;;;11.20;;
12445;SDS011;6287;50.984;7.022;2023-11-18T01:35:14;27.97;;;12.00;;
12445;SDS011;6287;50.984;7.022;2023-11-18T01:37:40;29.43;;;12.13;;
12445;SDS011;6287;50.984;7.022;2023-11-18T01:40:06;31.13;;;12.27;;
12445;SDS011;6287;50.984;7.022;2023-11-18T01:42:32;30.43;;;11.77;;
12445;SDS011;6287;50.984;7.022;2023-11-18T01:45:03;24.60;;;12.10;;
12445;SDS011;6287;50.984;7.022;2023-11-18T01:47:32;27.10;;;11.33;;
12445;SDS011;6287;50.984;7.022;2023-11-18T01:49:59;28.77;;;11.87;;
12445;SDS011;6287;50.984;7.022;2023-11-18T01:52:26;31.80;;;12.07;;
12445;SDS011;6287;50.984;7.022;2023-11-18T01:54:55;28.87;;;11.40;;
12445;SDS011;6287;50.984;7.022;2023-11-18T01:57:21;25.37;;;11.57;;
12445;SDS011;6287;50.984;7.022;2023-11-18T01:59:52;26.00;;;11.70;;
12445;SDS011;6287;50.984;7.022;2023-11-18T02:02:24;27.13;;;11.03;;
12445;SDS011;6287;50.984;7.022;2023-11-18T02:04:52;26.90;;;10.97;;
12445;SDS011;6287;50.984;7.022;2023-11-18T02:07:18;26.43;;;11.13;;
12445;SDS011;6287;50.984;7.022;2023-11-18T02:09:44;25.97;;;11.87;;
12445;SDS011;6287;50.984;7.022;2023-11-18T02:14:52;31.43;;;12.13;;
12445;SDS011;6287;50.984;7.022;2023-11-18T02:17:21;27.83;;;11.37;;
12445;SDS011;6287;50.984;7.022;2023-11-18T02:19:53;26.50;;;11.73;;
12445;SDS011;6287;50.984;7.022;2023-11-18T02:22:26;32.47;;;12.47;;
12445;SDS011;6287;50.984;7.022;2023-11-18T02:24:54;25.77;;;11.97;;
12445;SDS011;6287;50.984;7.022;2023-11-18T02:27:20;25.33;;;11.00;;
12445;SDS011;6287;50.984;7.022;2023-11-18T02:29:47;26.37;;;11.37;;
12445;SDS011;6287;50.984;7.022;2023-11-18T02:37:39;24.43;;;10.83;;
12445;SDS011;6287;50.984;7.022;2023-11-18T02:40:11;23.60;;;10.73;;
12445;SDS011;6287;50.984;7.022;2023-11-18T02:42:41;26.70;;;12.20;;
12445;SDS011;6287;50.984;7.022;2023-11-18T02:45:15;25.00;;;11.17;;
12445;SDS011;6287;50.984;7.022;2023-11-18T02:47:43;24.97;;;10.37;;
12445;SDS011;6287;50.984;7.022;2023-11-18T02:50:10;24.60;;;10.50;;
12445;SDS011;6287;50.984;7.022;2023-11-18T02:52:38;24.13;;;10.87;;
12445;SDS011;6287;50.984;7.022;2023-11-18T02:55:05;28.33;;;12.03;;
12445;SDS011;6287;50.984;7.022;2023-11-18T02:57:35;21.77;;;10.77;;
12445;SDS011;6287;50.984;7.022;2023-11-18T03:00:06;23.83;;;11.27;;
12445;SDS011;6287;50.984;7.022;2023-11-18T03:02:46;25.53;;;10.33;;
12445;SDS011;6287;50.984;7.022;2023-11-18T03:05:13;22.80;;;11.17;;
12445;SDS011;6287;50.984;7.022;2023-11-18T03:07:42;23.23;;;11.13;;
12445;SDS011;6287;50.984;7.022;2023-11-18T03:10:17;22.63;;;11.17;;
12445;SDS011;6287;50.984;7.022;2023-11-18T03:12:49;22.73;;;11.03;;
12445;SDS011;6287;50.984;7.022;2023-11-18T03:15:16;24.33;;;10.70;;
12445;SDS011;6287;50.984;7.022;2023-11-18T03:17:44;23.83;;;10.77;;
12445;SDS011;6287;50.984;7.022;2023-11-18T03:20:14;27.47;;;11.67;;
12445;SDS011;6287;50.984;7.022;2023-11-18T03:22:43;23.37;;;11.07;;
12445;SDS011;6287;50.984;7.022;2023-11-18T03:25:12;23.17;;;10.07;;
12445;SDS011;6287;50.984;7.022;2023-11-18T03:27:40;27.00;;;11.43;;
12445;SDS011;6287;50.984;7.022;2023-11-18T03:30:12;20.90;;;10.10;;
12445;SDS011;6287;50.984;7.022;2023-11-18T03:32:40;22.70;;;10.77;;
12445;SDS011;6287;50.984;7.022;2023-11-18T03:35:07;28.43;;;10.83;;
12445;SDS011;6287;50.984;7.022;2023-11-18T03:37:37;27.13;;;11.73;;
12445;SDS011;6287;50.984;7.022;2023-11-18T03:40:09;26.57;;;10.97;;
12445;SDS011;6287;50.984;7.022;2023-11-18T03:42:38;24.13;;;11.20;;
12445;SDS011;6287;50.984;7.022;2023-11-18T03:45:05;23.73;;;12.20;;
12445;SDS011;6287;50.984;7.022;2023-11-18T03:47:34;25.90;;;10.90;;
12445;SDS011;6287;50.984;7.022;2023-11-18T03:50:00;24.33;;;11.33;;
12445;SDS011;6287;50.984;7.022;2023-11-18T03:52:26;27.67;;;11.80;;
12445;SDS011;6287;50.984;7.022;2023-11-18T03:54:52;22.10;;;10.83;;
12445;SDS011;6287;50.984;7.022;2023-11-18T03:57:20;23.47;;;11.57;;
12445;SDS011;6287;50.984;7.022;2023-11-18T03:59:46;22.73;;;9.80;;
12445;SDS011;6287;50.984;7.022;2023-11-18T04:02:11;21.90;;;11.03;;
12445;SDS011;6287;50.984;7.022;2023-11-18T04:04:37;24.37;;;10.47;;
12445;SDS011;6287;50.984;7.022;2023-11-18T04:07:07;22.23;;;9.97;;
12445;SDS011;6287;50.984;7.022;2023-11-18T04:09:33;24.53;;;10.07;;
12445;SDS011;6287;50.984;7.022;2023-11-18T04:12:01;21.60;;;10.30;;
12445;SDS011;6287;50.984;7.022;2023-11-18T04:14:30;22.20;;;10.57;;
12445;SDS011;6287;50.984;7.022;2023-11-18T04:16:56;24.10;;;10.40;;
12445;SDS011;6287;50.984;7.022;2023-11-18T04:19:25;24.00;;;10.97;;
12445;SDS011;6287;50.984;7.022;2023-11-18T04:21:53;23.37;;;10.33;;
12445;SDS011;6287;50.984;7.022;2023-11-18T04:24:18;23.13;;;11.43;;
12445;SDS011;6287;50.984;7.022;2023-11-18T04:26:44;21.37;;;10.40;;
12445;SDS011;6287;50.984;7.022;2023-11-18T04:29:11;25.27;;;11.17;;
12445;SDS011;6287;50.984;7.022;2023-11-18T04:31:39;25.53;;;11.47;;
12445;SDS011;6287;50.984;7.022;2023-11-18T04:34:07;25.03;;;10.27;;
12445;SDS011;6287;50.984;7.022;2023-11-18T04:36:33;21.43;;;10.00;;
12445;SDS011;6287;50.984;7.022;2023-11-18T04:39:03;29.07;;;10.73;;
12445;SDS011;6287;50.984;7.022;2023-11-18T04:41:31;24.93;;;11.17;;
12445;SDS011;6287;50.984;7.022;2023-11-18T04:43:57;20.20;;;9.93;;
12445;SDS011;6287;50.984;7.022;2023-11-18T04:46:25;23.80;;;11.53;;
12445;SDS011;6287;50.984;7.022;2023-11-18T04:48:56;22.10;;;10.67;;
12445;SDS011;6287;50.984;7.022;2023-11-18T04:51:21;24.00;;;10.17;;
12445;SDS011;6287;50.984;7.022;2023-11-18T04:53:50;24.90;;;11.00;;
12445;SDS011;6287;50.984;7.022;2023-11-18T04:56:21;22.50;;;9.87;;
12445;SDS011;6287;50.984;7.022;2023-11-18T04:58:49;21.57;;;9.33;;
12445;SDS011;6287;50.984;7.022;2023-11-18T05:01:15;21.77;;;10.13;;
12445;SDS011;6287;50.984;7.022;2023-11-18T05:03:40;21.00;;;11.23;;
12445;SDS011;6287;50.984;7.022;2023-11-18T05:06:08;20.20;;;9.93;;
12445;SDS011;6287;50.984;7.022;2023-11-18T05:08:34;20.73;;;9.70;;
12445;SDS011;6287;50.984;7.022;2023-11-18T05:11:01;26.73;;;10.80;;
12445;SDS011;6287;50.984;7.022;2023-11-18T05:13:26;22.77;;;11.13;;
12445;SDS011;6287;50.984;7.022;2023-11-18T05:15:52;21.40;;;10.10;;
12445;SDS011;6287;50.984;7.022;2023-11-18T05:18:19;21.67;;;10.33;;
12445;SDS011;6287;50.984;7.022;2023-11-18T05:20:44;21.23;;;9.93;;
12445;SDS011;6287;50.984;7.022;2023-11-18T05:23:12;22.00;;;9.93;;
12445;SDS011;6287;50.984;7.022;2023-11-18T05:25:41;22.23;;;11.03;;
12445;SDS011;6287;50.984;7.022;2023-11-18T05:28:08;21.90;;;10.10;;
12445;SDS011;6287;50.984;7.022;2023-11-18T05:30:37;20.40;;;9.87;;
12445;SDS011;6287;50.984;7.022;2023-11-18T05:33:04;21.30;;;10.27;;
12445;SDS011;6287;50.984;7.022;2023-11-18T05:35:34;23.80;;;10.87;;
12445;SDS011;6287;50.984;7.022;2023-11-18T05:38:08;22.23;;;10.90;;
12445;SDS011;6287;50.984;7.022;2023-11-18T05:40:36;21.20;;;9.80;;
12445;SDS011;6287;50.984;7.022;2023-11-18T05:43:07;18.20;;;9.53;;
12445;SDS011;6287;50.984;7.022;2023-11-18T05:45:41;22.00;;;9.83;;
12445;SDS011;6287;50.984;7.022;2023-11-18T05:48:28;20.67;;;10.43;;
12445;SDS011;6287;50.984;7.022;2023-11-18T05:50:57;18.90;;;10.03;;
12445;SDS011;6287;50.984;7.022;2023-11-18T05:53:24;24.80;;;10.60;;
12445;SDS011;6287;50.984;7.022;2023-11-18T05:55:50;23.53;;;10.27;;
12445;SDS011;6287;50.984;7.022;2023-11-18T05:58:20;20.20;;;9.73;;
12445;SDS011;6287;50.984;7.022;2023-11-18T06:00:46;20.20;;;9.70;;
12445;SDS011;6287;50.984;7.022;2023-11-18T06:03:16;21.67;;;9.73;;
12445;SDS011;6287;50.984;7.022;2023-11-18T06:05:47;18.30;;;9.43;;
12445;SDS011;6287;50.984;7.022;2023-11-18T06:08:16;19.20;;;10.73;;
12445;SDS011;6287;50.984;7.022;2023-11-18T06:10:44;22.27;;;9.97;;
12445;SDS011;6287;50.984;7.022;2023-11-18T06:13:10;20.87;;;9.50;;
12445;SDS011;6287;50.984;7.022;2023-11-18T06:15:38;21.17;;;9.43;;
12445;SDS011;6287;50.984;7.022;2023-11-18T06:18:04;22.23;;;9.50;;
12445;SDS011;6287;50.984;7.022;2023-11-18T06:20:30;21.80;;;10.13;;
12445;SDS011;6287;50.984;7.022;2023-11-18T06:23:00;19.23;;;9.50;;
12445;SDS011;6287;50.984;7.022;2023-11-18T06:25:27;21.30;;;9.77;;
12445;SDS011;6287;50.984;7.022;2023-11-18T06:27:54;20.53;;;10.03;;
12445;SDS011;6287;50.984;7.022;2023-11-18T06:30:23;18.77;;;9.73;;
12445;SDS011;6287;50.984;7.022;2023-11-18T06:32:51;20.70;;;9.57;;
12445;SDS011;6287;50.984;7.022;2023-11-18T06:35:16;21.17;;;9.53;;
12445;SDS011;6287;50.984;7.022;2023-11-18T06:37:46;19.13;;;9.80;;
12445;SDS011;6287;50.984;7.022;2023-11-18T06:40:12;18.90;;;9.40;;
12445;SDS011;6287;50.984;7.022;2023-11-18T06:42:46;20.27;;;9.90;;
12445;SDS011;6287;50.984;7.022;2023-11-18T06:45:15;17.30;;;9.93;;
12445;SDS011;6287;50.984;7.022;2023-11-18T06:47:40;19.83;;;10.83;;
12445;SDS011;6287;50.984;7.022;2023-11-18T06:50:12;16.87;;;9.53;;
12445;SDS011;6287;50.984;7.022;2023-11-18T06:52:39;20.33;;;9.83;;
12445;SDS011;6287;50.984;7.022;2023-11-18T06:55:10;21.67;;;10.77;;
12445;SDS011;6287;50.984;7.022;2023-11-18T06:57:36;19.07;;;9.63;;
12445;SDS011;6287;50.984;7.022;2023-11-18T07:00:04;17.77;;;9.90;;
12445;SDS011;6287;50.984;7.022;2023-11-18T07:02:34;17.23;;;9.00;;
12445;SDS011;6287;50.984;7.022;2023-11-18T07:05:04;17.00;;;8.73;;
12445;SDS011;6287;50.984;7.022;2023-11-18T07:07:30;17.30;;;9.00;;
12445;SDS011;6287;50.984;7.022;2023-11-18T07:09:57;17.30;;;9.33;;
12445;SDS011;6287;50.984;7.022;2023-11-18T07:12:22;20.73;;;10.13;;
12445;SDS011;6287;50.984;7.022;2023-11-18T07:14:50;19.23;;;9.47;;
12445;SDS011;6287;50.984;7.022;2023-11-18T07:17:19;18.00;;;8.83;;
12445;SDS011;6287;50.984;7.022;2023-11-18T07:19:49;19.97;;;9.43;;
12445;SDS011;6287;50.984;7.022;2023-11-18T07:22:19;18.57;;;9.43;;
12445;SDS011;6287;50.984;7.022;2023-11-18T07:24:47;18.87;;;8.87;;
12445;SDS011;6287;50.984;7.022;2023-11-18T07:27:17;16.70;;;8.30;;
12445;SDS011;6287;50.984;7.022;2023-11-18T07:29:43;17.30;;;8.60;;
12445;SDS011;6287;50.984;7.022;2023-11-18T07:32:11;21.80;;;10.13;;
12445;SDS011;6287;50.984;7.022;2023-11-18T07:34:39;19.97;;;9.37;;
12445;SDS011;6287;50.984;7.022;2023-11-18T07:37:06;18.40;;;9.57;;
12445;SDS011;6287;50.984;7.022;2023-11-18T07:39:33;16.47;;;8.07;;
12445;SDS011;6287;50.984;7.022;2023-11-18T07:42:13;16.97;;;8.77;;
12445;SDS011;6287;50.984;7.022;2023-11-18T07:44:39;16.10;;;9.17;;
12445;SDS011;6287;50.984;7.022;2023-11-18T07:47:05;16.63;;;8.27;;
12445;SDS011;6287;50.984;7.022;2023-11-18T07:49:32;15.80;;;8.73;;
12445;SDS011;6287;50.984;7.022;2023-11-18T07:52:01;16.47;;;8.50;;
12445;SDS011;6287;50.984;7.022;2023-11-18T07:54:27;15.83;;;8.60;;
12445;SDS011;6287;50.984;7.022;2023-11-18T07:56:53;19.37;;;8.70;;
12445;SDS011;6287;50.984;7.022;2023-11-18T07:59:19;18.13;;;9.07;;
12445;SDS011;6287;50.984;7.022;2023-11-18T08:01:45;15.87;;;8.63;;
12445;SDS011;6287;50.984;7.022;2023-11-18T08:04:16;16.93;;;8.37;;
12445;SDS011;6287;50.984;7.022;2023-11-18T08:06:45;12.87;;;8.07;;
12445;SDS011;6287;50.984;7.022;2023-11-18T08:09:11;14.97;;;7.23;;
12445;SDS011;6287;50.984;7.022;2023-11-18T08:11:47;15.37;;;7.77;;
12445;SDS011;6287;50.984;7.022;2023-11-18T08:14:14;13.13;;;7.40;;
12445;SDS011;6287;50.984;7.022;2023-11-18T08:16:42;15.63;;;8.17;;
12445;SDS011;6287;50.984;7.022;2023-11-18T08:19:10;14.47;;;8.03;;
12445;SDS011;6287;50.984;7.022;2023-11-18T08:21:38;13.00;;;7.43;;
12445;SDS011;6287;50.984;7.022;2023-11-18T08:24:05;12.80;;;7.23;;
12445;SDS011;6287;50.984;7.022;2023-11-18T08:26:35;13.70;;;7.43;;
12445;SDS011;6287;50.984;7.022;2023-11-18T08:29:03;14.07;;;7.67;;
12445;SDS011;6287;50.984;7.022;2023-11-18T08:31:33;15.10;;;7.00;;
12445;SDS011;6287;50.984;7.022;2023-11-18T08:33:58;11.73;;;7.13;;
12445;SDS011;6287;50.984;7.022;2023-11-18T08:36:26;15.53;;;7.43;;
12445;SDS011;6287;50.984;7.022;2023-11-18T08:38:57;10.90;;;6.83;;
12445;SDS011;6287;50.984;7.022;2023-11-18T08:41:25;12.17;;;6.93;;
12445;SDS011;6287;50.984;7.022;2023-11-18T08:43:51;13.17;;;7.33;;
12445;SDS011;6287;50.984;7.022;2023-11-18T08:46:17;13.27;;;6.57;;
12445;SDS011;6287;50.984;7.022;2023-11-18T08:48:42;11.83;;;6.60;;
12445;SDS011;6287;50.984;7.022;2023-11-18T08:51:09;11.93;;;6.70;;
12445;SDS011;6287;50.984;7.022;2023-11-18T08:53:38;11.20;;;6.37;;
12445;SDS011;6287;50.984;7.022;2023-11-18T08:56:10;12.47;;;7.00;;
12445;SDS011;6287;50.984;7.022;2023-11-18T08:58:47;14.90;;;6.83;;
12445;SDS011;6287;50.984;7.022;2023-11-18T09:01:14;11.03;;;6.90;;
12445;SDS011;6287;50.984;7.022;2023-11-18T09:03:42;10.03;;;6.27;;
12445;SDS011;6287;50.984;7.022;2023-11-18T09:06:17;11.67;;;5.73;;
12445;SDS011;6287;50.984;7.022;2023-11-18T09:08:53;12.87;;;6.77;;
12445;SDS011;6287;50.984;7.022;2023-11-18T09:11:19;10.63;;;6.47;;
12445;SDS011;6287;50.984;7.022;2023-11-18T09:13:52;10.47;;;6.30;;
12445;SDS011;6287;50.984;7.022;2023-11-18T09:16:27;13.17;;;6.67;;
12445;SDS011;6287;50.984;7.022;2023-11-18T09:18:55;12.17;;;6.50;;
12445;SDS011;6287;50.984;7.022;2023-11-18T09:21:24;12.17;;;7.20;;
12445;SDS011;6287;50.984;7.022;2023-11-18T09:23:56;11.30;;;7.10;;
12445;SDS011;6287;50.984;7.022;2023-11-18T09:26:22;8.03;;;5.73;;
12445;SDS011;6287;50.984;7.022;2023-11-18T09:28:50;10.10;;;5.90;;
12445;SDS011;6287;50.984;7.022;2023-11-18T09:31:17;10.40;;;6.40;;
12445;SDS011;6287;50.984;7.022;2023-11-18T09:33:43;10.87;;;6.47;;
12445;SDS011;6287;50.984;7.022;2023-11-18T09:36:16;10.33;;;6.10;;
12445;SDS011;6287;50.984;7.022;2023-11-18T09:38:43;11.00;;;6.53;;
12445;SDS011;6287;50.984;7.022;2023-11-18T09:41:13;11.00;;;5.83;;
12445;SDS011;6287;50.984;7.022;2023-11-18T09:43:46;8.67;;;6.33;;
12445;SDS011;6287;50.984;7.022;2023-11-18T09:48:47;10.27;;;5.43;;
12445;SDS011;6287;50.984;7.022;2023-11-18T09:51:24;9.93;;;6.40;;
12445;SDS011;6287;50.984;7.022;2023-11-18T09:53:58;10.97;;;6.50;;
12445;SDS011;6287;50.984;7.022;2023-11-18T09:59:18;11.77;;;6.80;;
12445;SDS011;6287;50.984;7.022;2023-11-18T10:01:52;10.47;;;6.67;;
12445;SDS011;6287;50.984;7.022;2023-11-18T10:04:25;11.13;;;6.30;;
12445;SDS011;6287;50.984;7.022;2023-11-18T10:06:56;12.10;;;6.90;;
12445;SDS011;6287;50.984;7.022;2023-11-18T10:09:26;11.57;;;6.33;;
12445;SDS011;6287;50.984;7.022;2023-11-18T10:12:03;7.50;;;5.43;;
12445;SDS011;6287;50.984;7.022;2023-11-18T10:14:35;10.93;;;6.13;;
12445;SDS011;6287;50.984;7.022;2023-11-18T10:17:05;8.57;;;5.80;;
12445;SDS011;6287;50.984;7.022;2023-11-18T10:22:27;9.77;;;5.93;;
12445;SDS011;6287;50.984;7.022;2023-11-18T10:24:57;9.00;;;5.30;;
12445;SDS011;6287;50.984;7.022;2023-11-18T10:27:26;9.10;;;5.43;;
12445;SDS011;6287;50.984;7.022;2023-11-18T10:29:56;8.70;;;6.13;;
12445;SDS011;6287;50.984;7.022;2023-11-18T10:32:27;7.80;;;5.07;;
12445;SDS011;6287;50.984;7.022;2023-11-18T10:35:03;7.87;;;5.50;;
12445;SDS011;6287;50.984;7.022;2023-11-18T10:37:31;8.23;;;4.93;;
12445;SDS011;6287;50.984;7.022;2023-11-18T10:40:03;8.67;;;5.37;;
12445;SDS011;6287;50.984;7.022;2023-11-18T10:42:33;11.17;;;5.53;;
12445;SDS011;6287;50.984;7.022;2023-11-18T10:44:59;9.13;;;5.40;;
12445;SDS011;6287;50.984;7.022;2023-11-18T10:47:28;7.23;;;4.80;;
12445;SDS011;6287;50.984;7.022;2023-11-18T10:49:57;6.67;;;4.73;;
12445;SDS011;6287;50.984;7.022;2023-11-18T10:52:24;9.33;;;5.70;;
12445;SDS011;6287;50.984;7.022;2023-11-18T10:55:00;6.43;;;5.00;;
12445;SDS011;6287;50.984;7.022;2023-11-18T10:57:38;8.23;;;5.10;;
12445;SDS011;6287;50.984;7.022;2023-11-18T11:00:07;5.80;;;4.17;;
12445;SDS011;6287;50.984;7.022;2023-11-18T11:02:39;7.83;;;4.67;;
12445;SDS011;6287;50.984;7.022;2023-11-18T11:05:08;6.97;;;5.20;;
12445;SDS011;6287;50.984;7.022;2023-11-18T11:07:40;8.40;;;5.20;;
12445;SDS011;6287;50.984;7.022;2023-11-18T11:10:07;5.50;;;4.40;;
12445;SDS011;6287;50.984;7.022;2023-11-18T11:12:51;8.77;;;4.93;;
12445;SDS011;6287;50.984;7.022;2023-11-18T11:15:30;5.63;;;4.40;;
12445;SDS011;6287;50.984;7.022;2023-11-18T11:18:03;7.43;;;4.70;;
12445;SDS011;6287;50.984;7.022;2023-11-18T11:20:41;5.17;;;4.13;;
12445;SDS011;6287;50.984;7.022;2023-11-18T11:28:23;5.77;;;4.13;;
12445;SDS011;6287;50.984;7.022;2023-11-18T11:31:03;8.10;;;4.40;;
12445;SDS011;6287;50.984;7.022;2023-11-18T11:33:46;7.10;;;4.27;;
12445;SDS011;6287;50.984;7.022;2023-11-18T11:36:24;8.17;;;4.63;;
12445;SDS011;6287;50.984;7.022;2023-11-18T11:38:56;7.23;;;4.20;;
12445;SDS011;6287;50.984;7.022;2023-11-18T11:41:24;5.97;;;4.33;;
12445;SDS011;6287;50.984;7.022;2023-11-18T11:43:53;5.77;;;4.10;;
12445;SDS011;6287;50.984;7.022;2023-11-18T11:46:24;6.10;;;4.20;;
12445;SDS011;6287;50.984;7.022;2023-11-18T11:48:57;6.13;;;4.63;;
12445;SDS011;6287;50.984;7.022;2023-11-18T11:51:29;6.10;;;4.33;;
12445;SDS011;6287;50.984;7.022;2023-11-18T11:54:04;7.53;;;4.83;;
12445;SDS011;6287;50.984;7.022;2023-11-18T11:56:44;6.87;;;4.53;;
12445;SDS011;6287;50.984;7.022;2023-11-18T12:02:19;6.03;;;4.43;;
12445;SDS011;6287;50.984;7.022;2023-11-18T12:04:51;7.23;;;4.87;;
12445;SDS011;6287;50.984;7.022;2023-11-18T12:07:25;6.00;;;4.30;;
12445;SDS011;6287;50.984;7.022;2023-11-18T12:09:57;8.07;;;4.60;;
12445;SDS011;6287;50.984;7.022;2023-11-18T12:12:31;7.30;;;4.10;;
12445;SDS011;6287;50.984;7.022;2023-11-18T12:14:59;8.00;;;4.37;;
12445;SDS011;6287;50.984;7.022;2023-11-18T12:23:19;7.50;;;4.50;;
12445;SDS011;6287;50.984;7.022;2023-11-18T12:25:55;7.40;;;4.30;;
12445;SDS011;6287;50.984;7.022;2023-11-18T12:30:58;4.90;;;4.03;;
12445;SDS011;6287;50.984;7.022;2023-11-18T12:42:04;5.60;;;3.97;;
12445;SDS011;6287;50.984;7.022;2023-11-18T12:47:39;5.80;;;3.70;;
12445;SDS011;6287;50.984;7.022;2023-11-18T12:50:14;7.73;;;4.10;;
12445;SDS011;6287;50.984;7.022;2023-11-18T12:52:51;6.63;;;4.10;;
12445;SDS011;6287;50.984;7.022;2023-11-18T12:55:22;5.83;;;3.60;;
12445;SDS011;6287;50.984;7.022;2023-11-18T12:57:51;6.50;;;4.00;;
12445;SDS011;6287;50.984;7.022;2023-11-18T13:00:21;5.33;;;3.13;;
12445;SDS011;6287;50.984;7.022;2023-11-18T13:02:52;5.60;;;3.50;;
12445;SDS011;6287;50.984;7.022;2023-11-18T13:05:19;6.77;;;4.33;;
12445;SDS011;6287;50.984;7.022;2023-11-18T13:07:46;5.03;;;3.47;;
12445;SDS011;6287;50.984;7.022;2023-11-18T13:10:17;6.13;;;3.53;;
12445;SDS011;6287;50.984;7.022;2023-11-18T13:12:43;8.43;;;3.27;;
12445;SDS011;6287;50.984;7.022;2023-11-18T13:15:10;6.80;;;3.17;;
12445;SDS011;6287;50.984;7.022;2023-11-18T13:17:36;6.47;;;3.20;;
12445;SDS011;6287;50.984;7.022;2023-11-18T13:20:14;5.23;;;3.50;;
12445;SDS011;6287;50.984;7.022;2023-11-18T13:22:48;4.20;;;3.30;;
12445;SDS011;6287;50.984;7.022;2023-11-18T13:25:16;5.20;;;3.57;;
12445;SDS011;6287;50.984;7.022;2023-11-18T13:27:44;5.10;;;3.30;;
12445;SDS011;6287;50.984;7.022;2023-11-18T13:30:11;6.97;;;3.80;;
12445;SDS011;6287;50.984;7.022;2023-11-18T13:32:39;5.80;;;3.37;;
12445;SDS011;6287;50.984;7.022;2023-11-18T13:35:07;7.00;;;3.40;;
12445;SDS011;6287;50.984;7.022;2023-11-18T13:37:33;5.27;;;3.53;;
12445;SDS011;6287;50.984;7.022;2023-11-18T13:40:01;6.50;;;4.20;;
12445;SDS011;6287;50.984;7.022;2023-11-18T13:42:31;5.90;;;3.87;;
12445;SDS011;6287;50.984;7.022;2023-11-18T13:45:11;9.73;;;4.03;;
12445;SDS011;6287;50.984;7.022;2023-11-18T13:47:40;9.00;;;3.77;;
12445;SDS011;6287;50.984;7.022;2023-11-18T13:50:12;3.70;;;2.87;;
12445;SDS011;6287;50.984;7.022;2023-11-18T13:52:41;5.47;;;3.33;;
12445;SDS011;6287;50.984;7.022;2023-11-18T13:55:06;3.60;;;3.00;;
12445;SDS011;6287;50.984;7.022;2023-11-18T13:57:33;5.23;;;3.17;;
12445;SDS011;6287;50.984;7.022;2023-11-18T14:00:02;6.43;;;2.93;;
12445;SDS011;6287;50.984;7.022;2023-11-18T14:02:30;4.20;;;2.43;;
12445;SDS011;6287;50.984;7.022;2023-11-18T14:05:00;4.63;;;2.53;;
12445;SDS011;6287;50.984;7.022;2023-11-18T14:07:26;4.33;;;2.60;;
12445;SDS011;6287;50.984;7.022;2023-11-18T14:09:52;6.70;;;2.97;;
12445;SDS011;6287;50.984;7.022;2023-11-18T14:12:24;4.90;;;2.70;;
12445;SDS011;6287;50.984;7.022;2023-11-18T14:14:52;6.60;;;3.03;;
12445;SDS011;6287;50.984;7.022;2023-11-18T14:17:18;4.40;;;2.30;;
12445;SDS011;6287;50.984;7.022;2023-11-18T14:19:43;3.93;;;2.80;;
12445;SDS011;6287;50.984;7.022;2023-11-18T14:22:09;4.70;;;2.90;;
12445;SDS011;6287;50.984;7.022;2023-11-18T14:24:35;4.97;;;2.37;;
12445;SDS011;6287;50.984;7.022;2023-11-18T14:27:00;4.97;;;3.20;;
12445;SDS011;6287;50.984;7.022;2023-11-18T14:29:26;4.23;;;2.77;;
12445;SDS011;6287;50.984;7.022;2023-11-18T14:31:52;5.30;;;2.83;;
12445;SDS011;6287;50.984;7.022;2023-11-18T14:34:19;4.70;;;2.87;;
12445;SDS011;6287;50.984;7.022;2023-11-18T14:36:44;4.23;;;3.00;;
12445;SDS011;6287;50.984;7.022;2023-11-18T14:39:10;4.53;;;2.80;;
12445;SDS011;6287;50.984;7.022;2023-11-18T14:41:42;5.10;;;3.20;;
12445;SDS011;6287;50.984;7.022;2023-11-18T14:44:09;5.00;;;3.17;;
12445;SDS011;6287;50.984;7.022;2023-11-18T14:46:35;4.43;;;3.10;;
12445;SDS011;6287;50.984;7.022;2023-11-18T14:49:04;4.70;;;3.00;;
12445;SDS011;6287;50.984;7.022;2023-11-18T14:51:32;4.67;;;2.97;;
12445;SDS011;6287;50.984;7.022;2023-11-18T14:54:00;6.53;;;2.90;;
12445;SDS011;6287;50.984;7.022;2023-11-18T14:56:27;6.03;;;3.13;;
12445;SDS011;6287;50.984;7.022;2023-11-18T14:58:52;4.83;;;3.27;;
12445;SDS011;6287;50.984;7.022;2023-11-18T15:01:18;4.77;;;2.97;;
12445;SDS011;6287;50.984;7.022;2023-11-18T15:03:45;3.37;;;2.70;;
12445;SDS011;6287;50.984;7.022;2023-11-18T15:06:13;6.80;;;3.23;;
12445;SDS011;6287;50.984;7.022;2023-11-18T15:08:39;4.97;;;2.87;;
12445;SDS011;6287;50.984;7.022;2023-11-18T15:11:08;4.57;;;3.10;;
12445;SDS011;6287;50.984;7.022;2023-11-18T15:13:34;4.27;;;3.07;;
12445;SDS011;6287;50.984;7.022;2023-11-18T15:15:59;4.27;;;2.53;;
12445;SDS011;6287;50.984;7.022;2023-11-18T15:18:29;4.13;;;2.83;;
12445;SDS011;6287;50.984;7.022;2023-11-18T15:20:54;4.17;;;3.17;;
12445;SDS011;6287;50.984;7.022;2023-11-18T15:23:21;5.27;;;3.40;;
12445;SDS011;6287;50.984;7.022;2023-11-18T15:25:47;4.70;;;2.97;;
12445;SDS011;6287;50.984;7.022;2023-11-18T15:28:17;5.17;;;2.50;;
12445;SDS011;6287;50.984;7.022;2023-11-18T15:30:46;2.80;;;2.50;;
12445;SDS011;6287;50.984;7.022;2023-11-18T15:33:11;2.63;;;2.40;;
12445;SDS011;6287;50.984;7.022;2023-11-18T15:35:40;4.50;;;2.30;;
12445;SDS011;6287;50.984;7.022;2023-11-18T15:38:06;6.87;;;3.00;;
12445;SDS011;6287;50.984;7.022;2023-11-18T15:40:35;3.70;;;2.43;;
12445;SDS011;6287;50.984;7.022;2023-11-18T15:43:03;5.83;;;2.67;;